Time;durP1;ratioP1;P1;durP2;ratioP2;P2;SDS_P1;SDS_P2;PMS_P1;PMS_P2;Temp;Humidity;BMP_temperature;BMP_pressure;BME280_temperature;BME280_humidity;BME280_pressure;Samples;Min_cycle;Max_cycle;Signal;HPM_P1;HPM_P2
2023/09/02 00:00:41;;;;;;;4.60;3.50;;;;;;;19.73;78.42;95751.81;6270964;22;20196;-85
2023/09/02 00:03:09;;;;;;;3.50;3.20;;;;;;;19.63;78.44;95768.06;6270643;22;20787;-85
2023/09/02 00:05:35;;;;;;;3.17;2.35;;;;;;;19.52;78.85;95763.66;6270935;22;20639;-86
2023/09/02 00:08:02;;;;;;;2.58;2.15;;;;;;;19.48;79.30;95767.69;6271694;22;20177;-85
2023/09/02 00:10:28;;;;;;;2.30;2.10;;;;;;;19.48;79.25;95772.13;6271011;22;20207;-83
2023/09/02 00:12:55;;;;;;;3.50;2.80;;;;;;;19.33;80.09;95783.03;6271807;22;20180;-85
2023/09/02 00:15:21;;;;;;;2.97;2.67;;;;;;;19.17;81.58;95808.00;6271627;22;20200;-83
2023/09/02 00:17:48;;;;;;;3.22;2.28;;;;;;;19.01;82.93;95839.16;6269981;22;20176;-85
2023/09/02 00:20:15;;;;;;;5.70;2.63;;;;;;;18.81;84.31;95863.72;6271278;22;20224;-85
2023/09/02 00:22:42;;;;;;;2.90;2.70;;;;;;;18.69;85.68;95882.91;6271221;22;20183;-85
2023/09/02 00:25:09;;;;;;;3.67;2.80;;;;;;;18.71;84.68;95873.84;6271051;22;20179;-85
2023/09/02 00:27:35;;;;;;;4.63;2.60;;;;;;;18.76;84.81;95873.22;6271356;22;20176;-84
2023/09/02 00:30:02;;;;;;;3.15;2.60;;;;;;;18.78;84.46;95869.38;6270749;22;20196;-85
2023/09/02 00:32:29;;;;;;;3.38;2.80;;;;;;;18.70;85.11;95887.13;6271079;22;20180;-85
2023/09/02 00:34:55;;;;;;;3.67;3.13;;;;;;;18.73;84.87;95868.44;6270797;22;20195;-85
2023/09/02 00:37:23;;;;;;;3.17;2.88;;;;;;;18.71;85.12;95884.28;6271851;22;20176;-85
2023/09/02 00:39:50;;;;;;;3.10;2.63;;;;;;;18.72;85.20;95885.88;6271110;22;20227;-85
2023/09/02 00:42:20;;;;;;;3.47;2.75;;;;;;;18.68;85.56;95889.16;6271506;22;20176;-85
2023/09/02 00:44:47;;;;;;;3.53;3.22;;;;;;;18.68;85.33;95889.94;6271970;22;20180;-86
2023/09/02 00:47:14;;;;;;;4.32;2.70;;;;;;;18.53;86.63;95915.56;6273084;22;20176;-85
2023/09/02 00:49:40;;;;;;;2.78;2.47;;;;;;;18.52;86.97;95920.00;6273214;22;20492;-85
2023/09/02 00:52:07;;;;;;;3.08;2.33;;;;;;;18.48;87.46;95928.47;6273813;22;20172;-85
2023/09/02 00:54:34;;;;;;;4.00;3.20;;;;;;;18.50;87.10;95922.03;6272929;22;20184;-86
2023/09/02 00:57:01;;;;;;;2.60;2.40;;;;;;;18.50;87.06;95919.41;6272869;22;20196;-85
2023/09/02 00:59:27;;;;;;;3.10;2.50;;;;;;;18.52;86.89;95922.59;6272930;22;20226;-85
2023/09/02 01:01:56;;;;;;;2.83;2.50;;;;;;;18.49;86.88;95911.81;6272740;22;20542;-85
2023/09/02 01:04:23;;;;;;;3.03;2.50;;;;;;;18.47;87.07;95917.25;6273005;22;20223;-85
2023/09/02 01:06:51;;;;;;;4.72;2.67;;;;;;;18.50;86.81;95905.59;6272448;22;20346;-85
2023/09/02 01:09:17;;;;;;;4.03;3.00;;;;;;;18.56;86.07;95900.31;6272959;22;20183;-85
2023/09/02 01:11:45;;;;;;;3.97;3.40;;;;;;;18.49;86.49;95907.38;6272735;22;20196;-85
2023/09/02 01:14:14;;;;;;;3.40;2.70;;;;;;;18.53;86.43;95913.78;6272751;22;20172;-85
2023/09/02 01:16:40;;;;;;;3.30;2.85;;;;;;;18.57;86.22;95903.72;6272190;22;20214;-86
2023/09/02 01:19:12;;;;;;;2.70;2.50;;;;;;;18.44;86.83;95924.72;6271707;22;20180;-83
2023/09/02 01:22:05;;;;;;;2.40;2.20;;;;;;;18.44;86.95;95920.31;6272192;22;20192;-85
2023/09/02 01:25:01;;;;;;;4.45;2.85;;;;;;;18.28;87.85;95933.88;6272805;22;20161;-86
2023/09/02 01:27:34;;;;;;;2.92;2.30;;;;;;;18.32;87.54;95929.03;6262365;22;20176;-85
2023/09/02 01:30:07;;;;;;;4.43;2.33;;;;;;;18.20;88.32;95934.97;6272718;22;20250;-86
2023/09/02 01:32:35;;;;;;;2.70;2.40;;;;;;;18.28;88.08;95934.69;6272611;22;20168;-85
2023/09/02 01:35:06;;;;;;;2.47;2.20;;;;;;;18.36;87.29;95919.78;6272683;22;20361;-83
2023/09/02 01:37:33;;;;;;;2.50;2.30;;;;;;;18.38;87.40;95917.75;6272283;22;20157;-85
2023/09/02 01:40:01;;;;;;;2.75;2.30;;;;;;;18.31;87.80;95928.25;6271946;22;20199;-85
2023/09/02 01:42:29;;;;;;;2.70;2.50;;;;;;;18.27;88.64;95937.53;6272416;22;20209;-85
2023/09/02 01:44:56;;;;;;;2.70;2.50;;;;;;;18.31;88.13;95936.06;6272260;22;20178;-83
2023/09/02 01:47:23;;;;;;;2.35;2.15;;;;;;;18.23;88.46;95946.78;6271884;22;20176;-84
2023/09/02 01:49:51;;;;;;;5.00;2.40;;;;;;;18.23;89.08;95944.97;6272178;22;20203;-85
2023/09/02 01:52:19;;;;;;;4.50;2.75;;;;;;;18.22;89.14;95950.41;6272196;22;20199;-86
2023/09/02 01:54:46;;;;;;;3.15;2.85;;;;;;;18.25;88.39;95945.56;6271833;22;20176;-85
2023/09/02 01:57:17;;;;;;;2.80;2.60;;;;;;;18.28;88.69;95946.91;6271368;22;20852;-85
2023/09/02 01:59:45;;;;;;;5.82;2.63;;;;;;;18.31;88.14;95946.50;6272158;22;20187;-85
2023/09/02 02:02:11;;;;;;;3.28;2.63;;;;;;;18.33;88.17;95933.25;6273183;22;20195;-85
2023/09/02 02:04:41;;;;;;;2.65;2.45;;;;;;;18.32;87.73;95929.03;6272831;22;20176;-86
2023/09/02 02:07:14;;;;;;;3.28;2.92;;;;;;;18.35;87.67;95928.63;6271099;22;20630;-83
2023/09/02 02:09:43;;;;;;;2.83;2.63;;;;;;;18.38;87.62;95926.38;6271495;22;20160;-85
2023/09/02 02:12:10;;;;;;;4.18;2.72;;;;;;;18.45;86.93;95910.66;6271007;22;20179;-85
2023/09/02 02:14:36;;;;;;;2.58;2.38;;;;;;;18.40;87.12;95920.94;6272160;22;20172;-86
2023/09/02 02:17:07;;;;;;;3.70;2.42;;;;;;;18.30;87.81;95927.44;6270897;22;20679;-85
2023/09/02 02:19:33;;;;;;;2.83;2.63;;;;;;;18.24;88.19;95930.94;6271758;22;20180;-85
2023/09/02 02:22:00;;;;;;;2.60;2.40;;;;;;;18.24;88.40;95940.56;6272155;22;20172;-85
2023/09/02 02:24:26;;;;;;;2.72;2.50;;;;;;;18.29;88.08;95946.69;6272338;22;20172;-85
2023/09/02 02:26:53;;;;;;;2.53;2.33;;;;;;;18.31;88.27;95946.50;6271000;22;20515;-85
2023/09/02 02:29:19;;;;;;;4.03;2.65;;;;;;;18.29;88.29;95943.31;6272344;22;20176;-82
2023/09/02 02:31:49;;;;;;;3.28;2.50;;;;;;;18.34;88.22;95943.47;6272000;22;20196;-85
2023/09/02 02:34:17;;;;;;;3.17;2.67;;;;;;;18.38;87.99;95952.44;6271786;22;20655;-83
2023/09/02 02:36:43;;;;;;;2.80;2.42;;;;;;;18.36;88.04;95941.44;6271606;22;20200;-83
2023/09/02 02:39:10;;;;;;;2.70;2.50;;;;;;;18.37;87.67;95939.63;6272331;22;20194;-85
2023/09/02 02:41:36;;;;;;;3.20;2.90;;;;;;;18.33;88.29;95943.66;6271606;22;20246;-85
2023/09/02 02:44:04;;;;;;;3.00;2.40;;;;;;;18.36;88.04;95944.03;6271319;22;20176;-85
2023/09/02 02:46:30;;;;;;;3.00;2.50;;;;;;;18.43;87.65;95942.19;6271464;22;20195;-86
2023/09/02 02:48:56;;;;;;;2.40;2.20;;;;;;;18.48;87.22;95936.28;6271010;22;20180;-85
2023/09/02 02:51:24;;;;;;;2.63;2.42;;;;;;;18.54;86.85;95928.41;6271579;22;20659;-85
2023/09/02 02:53:51;;;;;;;2.75;2.55;;;;;;;18.55;86.45;95916.97;6271538;22;20187;-87
2023/09/02 02:56:17;;;;;;;2.38;2.17;;;;;;;18.52;86.40;95920.00;6271053;22;20531;-85
2023/09/02 02:58:44;;;;;;;2.85;2.55;;;;;;;18.44;86.49;95917.69;6270936;22;20187;-85
2023/09/02 03:01:11;;;;;;;3.45;2.40;;;;;;;18.32;87.38;95936.88;6271295;22;20215;-85
2023/09/02 03:03:38;;;;;;;3.22;2.50;;;;;;;18.20;88.02;95942.00;6271453;22;20211;-85
2023/09/02 03:06:05;;;;;;;2.60;2.40;;;;;;;18.15;88.08;95939.22;6272387;22;20258;-85
2023/09/02 03:08:33;;;;;;;3.10;2.50;;;;;;;18.09;88.30;95933.06;6272314;22;20550;-86
2023/09/02 03:11:01;;;;;;;2.97;2.38;;;;;;;18.13;88.19;95942.06;6272060;22;20679;-87
2023/09/02 03:13:28;;;;;;;3.00;2.70;;;;;;;18.13;88.27;95949.88;6273236;22;20180;-86
2023/09/02 03:15:56;;;;;;;4.10;2.78;;;;;;;18.17;87.91;95943.22;6271753;22;20183;-86
2023/09/02 03:18:23;;;;;;;3.20;2.90;;;;;;;18.17;87.65;95945.81;6271613;22;20173;-86
2023/09/02 03:20:50;;;;;;;2.47;2.28;;;;;;;18.17;87.40;95943.22;6272647;22;20512;-85
2023/09/02 03:23:16;;;;;;;3.03;2.40;;;;;;;18.15;87.03;95937.44;6273253;22;20222;-86
2023/09/02 03:25:44;;;;;;;7.32;2.80;;;;;;;18.10;87.17;95937.25;6272663;22;20671;-85
2023/09/02 03:28:12;;;;;;;3.08;2.67;;;;;;;18.06;87.44;95949.16;6272937;22;20173;-85
2023/09/02 03:30:39;;;;;;;2.58;2.38;;;;;;;18.06;87.32;95945.75;6272314;22;20196;-85
2023/09/02 03:33:05;;;;;;;2.78;2.20;;;;;;;18.03;87.82;95944.38;6271513;22;20176;-85
2023/09/02 03:35:37;;;;;;;2.58;2.05;;;;;;;17.93;88.84;95960.47;6272725;22;20176;-85
2023/09/02 03:38:04;;;;;;;2.90;2.33;;;;;;;17.93;88.34;95965.66;6272399;22;20180;-85
2023/09/02 03:40:30;;;;;;;4.78;2.50;;;;;;;17.97;88.18;95957.44;6272783;22;20192;-85
2023/09/02 03:42:58;;;;;;;2.50;2.25;;;;;;;17.99;88.03;95960.63;6272477;22;20176;-85
2023/09/02 03:45:24;;;;;;;2.38;2.03;;;;;;;18.00;88.16;95947.38;6272773;22;20176;-85
2023/09/02 03:47:51;;;;;;;2.60;2.40;;;;;;;18.00;87.57;95936.16;6271734;22;20172;-85
2023/09/02 03:50:25;;;;;;;2.85;2.58;;;;;;;17.96;87.65;95930.59;6273606;22;20226;-86
2023/09/02 03:52:51;;;;;;;3.10;2.53;;;;;;;17.83;88.99;95954.16;6272797;22;20575;-86
2023/09/02 03:55:18;;;;;;;3.42;2.70;;;;;;;17.74;89.45;95958.81;6272368;22;20176;-84
2023/09/02 03:57:44;;;;;;;2.58;2.17;;;;;;;17.79;88.93;95963.38;6271927;22;20207;-85
2023/09/02 04:00:14;;;;;;;2.65;2.45;;;;;;;17.80;88.74;95960.56;6272842;22;20196;-85
2023/09/02 04:02:41;;;;;;;2.58;2.22;;;;;;;17.86;88.43;95957.13;6272445;22;20230;-86
2023/09/02 04:05:07;;;;;;;2.30;2.10;;;;;;;17.93;87.88;95942.22;6271547;22;20844;-86
2023/09/02 04:07:34;;;;;;;3.25;2.35;;;;;;;17.98;86.89;95933.78;6272692;22;20191;-86
2023/09/02 04:10:00;;;;;;;1.98;1.83;;;;;;;18.05;86.68;95929.31;6272355;22;20196;-86
2023/09/02 04:12:27;;;;;;;3.60;2.10;;;;;;;18.09;86.18;95927.84;6272444;22;20172;-86
2023/09/02 04:14:53;;;;;;;2.40;2.20;;;;;;;18.16;85.60;95923.38;6271801;22;20839;-86
2023/09/02 04:17:21;;;;;;;2.80;2.15;;;;;;;18.17;85.35;95916.38;6271001;22;20203;-86
2023/09/02 04:19:47;;;;;;;2.95;2.03;;;;;;;18.04;85.91;95926.91;6272546;22;20199;-86
2023/09/02 04:22:15;;;;;;;2.65;2.30;;;;;;;17.89;86.57;95940.28;6274531;22;20176;-86
2023/09/02 04:24:41;;;;;;;5.32;2.20;;;;;;;17.67;87.88;95965.09;6274046;22;20176;-86
2023/09/02 04:27:08;;;;;;;2.78;2.05;;;;;;;17.64;88.30;95973.28;6273934;22;20176;-86
2023/09/02 04:29:34;;;;;;;2.30;2.10;;;;;;;17.71;87.95;95971.44;6274992;22;20183;-86
2023/09/02 04:32:01;;;;;;;3.90;2.83;;;;;;;17.61;88.80;95990.94;6273536;22;20589;-86
2023/09/02 04:34:28;;;;;;;4.50;3.17;;;;;;;17.63;88.88;95997.72;6273315;22;20677;-87
2023/09/02 04:36:55;;;;;;;3.72;2.80;;;;;;;17.52;88.91;95997.38;6272837;22;20200;-85
2023/09/02 04:39:21;;;;;;;2.80;2.60;;;;;;;17.57;88.84;96000.16;6274157;22;20187;-85
2023/09/02 04:41:48;;;;;;;3.92;2.55;;;;;;;17.59;88.20;95990.34;6273232;22;20196;-86
2023/09/02 04:44:16;;;;;;;2.47;2.28;;;;;;;17.59;88.10;95981.72;6271802;22;20176;-86
2023/09/02 04:46:43;;;;;;;3.67;2.38;;;;;;;17.61;88.06;95990.13;6271176;22;20678;-86
2023/09/02 04:49:09;;;;;;;5.00;2.30;;;;;;;17.64;87.97;95988.91;6271844;22;20183;-85
2023/09/02 04:51:37;;;;;;;2.50;2.30;;;;;;;17.73;87.46;95982.47;6271344;22;20192;-86
2023/09/02 04:54:03;;;;;;;3.20;2.70;;;;;;;17.70;87.15;95975.88;6271607;22;20250;-83
2023/09/02 04:56:30;;;;;;;5.28;2.30;;;;;;;17.76;86.94;95969.81;6272124;22;20204;-86
2023/09/02 04:58:56;;;;;;;2.90;2.20;;;;;;;17.82;86.66;95962.97;6273479;22;20179;-83
2023/09/02 05:01:23;;;;;;;6.00;2.42;;;;;;;17.89;85.80;95958.53;6273769;22;20196;-83
2023/09/02 05:03:50;;;;;;;2.25;1.92;;;;;;;17.85;85.65;95955.53;6274052;22;20178;-83
2023/09/02 05:06:16;;;;;;;2.45;2.00;;;;;;;17.85;85.59;95960.75;6275140;22;20399;-86
2023/09/02 05:08:44;;;;;;;2.65;2.45;;;;;;;17.81;86.08;95969.19;6273356;22;20226;-86
2023/09/02 05:11:10;;;;;;;2.30;2.10;;;;;;;17.82;86.25;95976.00;6274128;22;20192;-87
2023/09/02 05:13:37;;;;;;;3.45;2.50;;;;;;;17.84;85.98;95968.78;6273800;22;20164;-87
2023/09/02 05:16:04;;;;;;;2.88;2.42;;;;;;;17.89;86.17;95963.72;6273417;22;20200;-86
2023/09/02 05:18:30;;;;;;;2.75;2.25;;;;;;;17.91;86.15;95966.88;6273276;22;20199;-86
2023/09/02 05:20:57;;;;;;;2.47;2.28;;;;;;;17.92;86.17;95966.69;6274260;22;20196;-87
2023/09/02 05:23:26;;;;;;;3.20;2.10;;;;;;;18.03;85.72;95973.03;6273985;22;20231;-87
2023/09/02 05:25:57;;;;;;;2.97;2.20;;;;;;;18.12;85.77;95963.91;6273976;22;20176;-86
2023/09/02 05:28:24;;;;;;;2.50;2.30;;;;;;;18.21;84.83;95959.25;6274472;22;20179;-86
2023/09/02 05:30:51;;;;;;;3.20;2.35;;;;;;;18.29;84.51;95954.53;6273538;22;20203;-86
2023/09/02 05:33:20;;;;;;;3.30;2.50;;;;;;;18.29;84.58;95954.53;6274389;22;20172;-87
2023/09/02 05:35:47;;;;;;;3.47;2.47;;;;;;;18.30;84.63;95953.50;6273771;22;20176;-86
2023/09/02 05:38:13;;;;;;;3.13;2.25;;;;;;;18.36;84.16;95946.66;6273716;22;20202;-86
2023/09/02 05:40:41;;;;;;;3.13;2.40;;;;;;;18.44;84.21;95954.19;6273336;22;20200;-85
2023/09/02 05:43:09;;;;;;;2.78;2.55;;;;;;;18.48;84.16;95952.72;6273776;22;20206;-87
2023/09/02 05:45:42;;;;;;;2.50;2.30;;;;;;;18.54;84.45;95961.50;6272934;22;20176;-87
2023/09/02 05:48:08;;;;;;;2.45;2.25;;;;;;;18.58;84.52;95960.88;6273526;22;20199;-86
2023/09/02 05:50:35;;;;;;;2.30;2.10;;;;;;;18.63;84.93;95976.69;6273812;22;20251;-87
2023/09/02 05:53:01;;;;;;;2.05;1.90;;;;;;;18.67;84.58;95971.81;6273018;22;20257;-83
2023/09/02 05:55:28;;;;;;;2.30;2.10;;;;;;;18.71;84.17;95961.75;6273547;22;20538;-84
2023/09/02 05:57:57;;;;;;;2.67;2.40;;;;;;;18.75;84.24;95963.72;6272146;22;20199;-87
2023/09/02 06:00:25;;;;;;;3.45;2.40;;;;;;;18.78;83.91;95960.69;6273761;22;20203;-86
2023/09/02 06:02:52;;;;;;;2.40;2.20;;;;;;;18.78;83.97;95967.72;6273866;22;20172;-86
2023/09/02 06:05:18;;;;;;;2.75;2.10;;;;;;;18.82;84.41;95974.88;6273665;22;20184;-86
2023/09/02 06:07:44;;;;;;;2.90;2.20;;;;;;;18.86;84.29;95975.22;6273148;22;20177;-86
2023/09/02 06:10:11;;;;;;;2.28;2.08;;;;;;;18.91;83.51;95963.13;6273684;22;20199;-87
2023/09/02 06:12:37;;;;;;;2.50;2.30;;;;;;;19.01;83.61;95967.03;6273197;22;20785;-86
2023/09/02 06:15:09;;;;;;;2.10;1.90;;;;;;;19.05;83.54;95961.13;6272925;22;20176;-86
2023/09/02 06:17:37;;;;;;;3.92;3.08;;;;;;;19.10;83.46;95961.28;6272481;22;20177;-86
2023/09/02 06:20:07;;;;;;;5.43;4.28;;;;;;;19.18;83.58;95965.41;6273501;22;20192;-86
2023/09/02 06:22:34;;;;;;;5.05;4.07;;;;;;;19.19;84.29;95980.88;6273116;22;20183;-85
2023/09/02 06:25:04;;;;;;;4.78;4.18;;;;;;;19.21;84.09;95972.81;6273088;22;20180;-86
2023/09/02 06:27:31;;;;;;;5.82;4.10;;;;;;;19.30;83.41;95964.44;6273198;22;20161;-82
2023/09/02 06:29:57;;;;;;;3.20;2.90;;;;;;;19.45;82.52;95958.00;6272761;22;20567;-87
2023/09/02 06:32:24;;;;;;;2.53;2.33;;;;;;;19.55;82.05;95943.44;6274241;22;20183;-86
2023/09/02 06:34:53;;;;;;;2.17;1.98;;;;;;;19.61;80.64;95908.59;6273566;22;20172;-86
2023/09/02 06:37:20;;;;;;;2.80;1.85;;;;;;;19.70;79.98;95897.78;6272079;22;20200;-86
2023/09/02 06:39:46;;;;;;;2.75;2.00;;;;;;;19.83;79.51;95887.13;6272880;22;20180;-86
2023/09/02 06:45:05;;;;;;;1.77;1.67;;;;;;;19.99;78.42;95862.94;6269639;22;20172;-87
2023/09/02 06:47:32;;;;;;;1.90;1.80;;;;;;;20.10;78.03;95862.13;6275365;22;20206;-87
2023/09/02 06:49:59;;;;;;;2.15;1.73;;;;;;;20.25;77.84;95874.72;6273831;22;20192;-87
2023/09/02 06:52:26;;;;;;;2.17;2.00;;;;;;;20.38;77.81;95873.72;6275046;22;20176;-87
2023/09/02 06:54:52;;;;;;;4.22;2.20;;;;;;;20.47;76.78;95862.66;6273289;22;20568;-86
2023/09/02 06:57:19;;;;;;;2.47;1.90;;;;;;;20.61;76.08;95845.66;6273098;22;20195;-86
2023/09/02 06:59:45;;;;;;;2.47;1.90;;;;;;;20.78;76.17;95844.94;6273861;22;20176;-87
2023/09/02 07:02:11;;;;;;;2.10;1.90;;;;;;;20.93;75.63;95846.00;6272424;22;20173;-85
2023/09/02 07:04:38;;;;;;;2.13;1.92;;;;;;;21.04;73.84;95805.06;6272377;22;20176;-86
2023/09/02 07:07:06;;;;;;;1.73;1.63;;;;;;;21.17;73.66;95789.03;6272776;22;20176;-86
2023/09/02 07:09:32;;;;;;;2.00;1.80;;;;;;;21.32;72.14;95757.13;6273043;22;20183;-83
2023/09/02 07:11:58;;;;;;;2.45;2.25;;;;;;;21.51;71.91;95752.41;6272651;22;20176;-85
2023/09/02 07:14:25;;;;;;;2.05;1.88;;;;;;;21.64;71.52;95733.72;6274205;22;20176;-85
2023/09/02 07:16:52;;;;;;;3.72;2.20;;;;;;;21.65;70.06;95694.16;6273363;22;20176;-87
2023/09/02 07:19:18;;;;;;;2.58;1.95;;;;;;;21.72;70.66;95709.72;6274058;22;20511;-85
2023/09/02 07:21:44;;;;;;;3.40;2.22;;;;;;;21.82;70.46;95704.59;6275095;22;20200;-88
2023/09/02 07:24:13;;;;;;;7.30;6.50;;;;;;;22.05;69.11;95672.13;6275634;22;20544;-87
2023/09/02 07:26:40;;;;;;;3.67;2.80;;;;;;;22.27;67.61;95624.84;6274327;22;20183;-86
2023/09/02 07:29:06;;;;;;;2.33;2.08;;;;;;;22.41;65.25;95549.94;6272703;22;20176;-86
2023/09/02 07:31:33;;;;;;;2.22;2.03;;;;;;;22.59;65.63;95572.38;6273013;22;20196;-86
2023/09/02 07:33:59;;;;;;;2.30;2.10;;;;;;;22.66;63.76;95523.09;6272560;22;20173;-87
2023/09/02 07:36:26;;;;;;;2.28;2.08;;;;;;;22.86;64.07;95520.59;6272789;22;20176;-86
2023/09/02 07:38:53;;;;;;;2.95;2.17;;;;;;;22.98;64.12;95528.25;6272182;22;20255;-86
2023/09/02 07:41:20;;;;;;;2.38;2.10;;;;;;;23.10;63.59;95513.06;6271955;22;20195;-86
2023/09/02 07:43:47;;;;;;;2.30;2.00;;;;;;;23.25;63.78;95510.53;6272136;22;20198;-85
2023/09/02 07:46:13;;;;;;;3.92;2.20;;;;;;;23.39;63.54;95527.38;6274611;22;20172;-86
2023/09/02 07:48:39;;;;;;;2.60;2.40;;;;;;;23.60;62.49;95491.47;6275382;22;20206;-86
2023/09/02 07:51:06;;;;;;;5.20;4.70;;;;;;;23.72;60.64;95414.97;6271961;22;20204;-86
2023/09/02 07:53:33;;;;;;;3.08;2.75;;;;;;;23.88;60.03;95407.84;6273139;22;20176;-86
2023/09/02 07:55:59;;;;;;;3.10;2.78;;;;;;;23.97;59.60;95362.34;6275029;22;20176;-85
2023/09/02 07:58:27;;;;;;;2.72;2.33;;;;;;;24.08;58.82;95342.06;6275900;22;20202;-86
2023/09/02 08:00:55;;;;;;;2.38;2.03;;;;;;;24.18;58.45;95323.63;6275873;22;20199;-86
2023/09/02 08:03:21;;;;;;;3.47;2.25;;;;;;;24.40;58.49;95315.44;6275098;22;20176;-87
2023/09/02 08:05:48;;;;;;;3.17;2.35;;;;;;;24.48;58.30;95316.69;6275390;22;20259;-86
2023/09/02 08:08:15;;;;;;;3.70;1.92;;;;;;;24.65;58.16;95298.72;6276547;22;20176;-86
2023/09/02 08:10:42;;;;;;;11.00;4.60;;;;;;;24.78;58.20;95335.78;6277737;22;20199;-87
2023/09/02 08:13:10;;;;;;;3.90;2.10;;;;;;;24.87;56.91;95272.00;6277967;22;20176;-86
2023/09/02 08:15:38;;;;;;;3.38;2.22;;;;;;;24.96;56.29;95254.59;6276989;22;20191;-87
2023/09/02 08:18:05;;;;;;;3.15;2.30;;;;;;;25.16;55.88;95222.81;6275576;22;20196;-84
2023/09/02 08:20:31;;;;;;;2.83;2.30;;;;;;;25.21;54.68;95167.41;6276768;22;20199;-87
2023/09/02 08:23:01;;;;;;;2.13;1.95;;;;;;;25.22;52.96;95097.03;6277418;22;20183;-87
2023/09/02 08:25:27;;;;;;;3.95;2.17;;;;;;;25.31;53.78;95113.81;6276229;22;20187;-84
2023/09/02 08:27:53;;;;;;;2.05;1.88;;;;;;;25.40;53.52;95102.38;6275828;22;20176;-87
2023/09/02 08:30:20;;;;;;;2.45;2.25;;;;;;;25.60;53.09;95100.56;6275282;22;20196;-86
2023/09/02 08:32:48;;;;;;;2.30;2.10;;;;;;;25.74;52.89;95089.06;6276460;22;20187;-85
2023/09/02 08:35:14;;;;;;;5.07;2.88;;;;;;;25.78;52.56;95076.91;6276282;22;20183;-87
2023/09/02 08:37:41;;;;;;;3.03;2.20;;;;;;;25.98;52.57;95069.78;6275742;22;20586;-88
2023/09/02 08:40:08;;;;;;;2.13;1.92;;;;;;;26.12;52.63;95074.03;6275077;22;20199;-87
2023/09/02 08:42:36;;;;;;;2.03;1.92;;;;;;;26.14;52.37;95056.06;6275988;22;20172;-85
2023/09/02 08:45:06;;;;;;;3.55;2.50;;;;;;;26.37;52.00;95067.59;6276641;22;20180;-87
2023/09/02 08:47:35;;;;;;;5.82;5.32;;;;;;;26.55;51.48;95033.53;6276510;22;20197;-87
2023/09/02 08:50:03;;;;;;;4.63;3.00;;;;;;;26.69;50.18;94986.81;6276461;22;20196;-84
2023/09/02 08:52:30;;;;;;;2.30;2.10;;;;;;;26.87;50.85;95001.00;6277175;22;20172;-87
2023/09/02 08:54:56;;;;;;;2.05;1.90;;;;;;;26.96;49.93;94967.53;6276734;22;20517;-86
2023/09/02 08:57:23;;;;;;;1.80;1.70;;;;;;;26.95;49.72;94937.69;6276576;22;20520;-85
2023/09/02 08:59:49;;;;;;;2.35;1.80;;;;;;;27.01;49.10;94911.97;6276905;22;20172;-84
2023/09/02 09:02:17;;;;;;;3.25;1.90;;;;;;;27.08;49.20;94934.28;6276848;22;20183;-87
2023/09/02 09:04:48;;;;;;;2.20;2.00;;;;;;;27.14;49.26;94919.84;6278180;22;20176;-86
2023/09/02 09:07:17;;;;;;;2.45;1.98;;;;;;;27.15;48.99;94904.78;6275697;22;20167;-87
2023/09/02 09:09:44;;;;;;;2.63;2.20;;;;;;;27.10;47.93;94875.84;6276034;22;20686;-86
2023/09/02 09:12:13;;;;;;;3.08;1.88;;;;;;;27.15;48.51;94924.06;6276828;22;20169;-87
2023/09/02 09:14:45;;;;;;;1.88;1.77;;;;;;;27.16;47.40;94848.97;6276093;22;20237;-84
2023/09/02 09:17:13;;;;;;;4.60;2.00;;;;;;;27.34;47.58;94851.75;6274510;22;20163;-84
2023/09/02 09:19:41;;;;;;;3.03;2.72;;;;;;;27.53;47.07;94842.56;6274586;22;20192;-87
2023/09/02 09:22:07;;;;;;;2.20;2.05;;;;;;;27.78;47.13;94830.63;6273112;22;20172;-84
2023/09/02 09:24:35;;;;;;;2.28;1.85;;;;;;;27.87;46.88;94828.03;6272816;22;20187;-83
2023/09/02 09:27:05;;;;;;;3.67;1.80;;;;;;;27.98;46.95;94858.41;6272219;22;20200;-86
2023/09/02 09:29:39;;;;;;;2.17;1.98;;;;;;;27.92;47.19;94861.50;6273280;22;20172;-83
2023/09/02 09:32:10;;;;;;;2.25;2.03;;;;;;;28.01;46.59;94851.75;6276306;22;20156;-88
2023/09/02 09:34:38;;;;;;;2.97;2.00;;;;;;;28.18;46.60;94836.72;6275415;22;20569;-87
2023/09/02 09:37:06;;;;;;;2.33;2.00;;;;;;;28.25;45.75;94811.72;6275851;22;20615;-87
2023/09/02 09:39:42;;;;;;;2.08;1.98;;;;;;;28.51;46.04;94837.16;6275862;22;20196;-86
2023/09/02 09:42:09;;;;;;;1.92;1.83;;;;;;;28.52;46.35;94817.53;6273595;22;20177;-87
2023/09/02 09:44:35;;;;;;;4.47;2.00;;;;;;;28.70;46.09;94815.69;6274256;22;20172;-87
2023/09/02 09:47:02;;;;;;;2.10;1.90;;;;;;;28.65;44.78;94760.22;6274686;22;20176;-87
2023/09/02 09:49:30;;;;;;;2.47;2.28;;;;;;;28.48;45.02;94731.81;6275344;22;20179;-84
2023/09/02 09:52:09;;;;;;;1.80;1.70;;;;;;;28.53;45.36;94754.75;6275452;22;20622;-85
2023/09/02 09:54:37;;;;;;;2.08;1.88;;;;;;;28.47;44.95;94734.81;6275401;22;20160;-87
2023/09/02 09:57:06;;;;;;;2.10;1.80;;;;;;;28.46;44.74;94718.13;6275317;22;20183;-86
2023/09/02 09:59:33;;;;;;;1.70;1.60;;;;;;;28.12;45.46;94742.63;6274737;22;20192;-85
2023/09/02 10:02:00;;;;;;;4.00;3.58;;;;;;;28.24;44.91;94747.38;6273670;22;20196;-87
2023/09/02 10:04:26;;;;;;;3.20;2.90;;;;;;;28.50;44.38;94729.66;6274316;22;20665;-87
2023/09/02 10:06:58;;;;;;;2.78;1.85;;;;;;;28.66;43.88;94700.06;6274496;22;20639;-87
2023/09/02 10:09:24;;;;;;;1.85;1.75;;;;;;;28.66;43.70;94670.94;6273905;22;20176;-85
2023/09/02 10:11:51;;;;;;;2.05;1.85;;;;;;;28.59;43.90;94700.53;6274025;22;20402;-87
2023/09/02 10:14:19;;;;;;;2.33;1.88;;;;;;;28.68;44.00;94700.50;6273515;22;20676;-87
2023/09/02 10:16:47;;;;;;;2.45;1.95;;;;;;;28.62;44.10;94712.38;6272739;22;20187;-87
2023/09/02 10:19:13;;;;;;;2.28;1.70;;;;;;;28.71;43.64;94705.19;6272738;22;20227;-87
2023/09/02 10:21:41;;;;;;;2.88;1.70;;;;;;;28.76;44.50;94740.28;6274444;22;20215;-87
2023/09/02 10:24:12;;;;;;;1.90;1.80;;;;;;;28.77;44.31;94728.59;6274459;22;20230;-87
2023/09/02 10:26:45;;;;;;;2.47;1.70;;;;;;;28.61;43.90;94685.09;6275223;22;20156;-87
2023/09/02 10:29:15;;;;;;;4.25;3.13;;;;;;;28.66;43.65;94706.16;6275177;22;20163;-87
2023/09/02 10:31:48;;;;;;;5.55;3.00;;;;;;;28.65;43.70;94714.41;6273342;22;20199;-87
2023/09/02 10:34:19;;;;;;;1.95;1.85;;;;;;;28.43;43.70;94681.69;6274575;22;20235;-87
2023/09/02 10:36:55;;;;;;;2.20;1.85;;;;;;;28.32;44.06;94706.88;6274042;22;20168;-86
2023/09/02 10:39:29;;;;;;;1.90;1.80;;;;;;;28.22;44.89;94733.66;6273725;22;20556;-87
2023/09/02 10:41:56;;;;;;;2.25;1.80;;;;;;;28.15;45.67;94802.13;6272279;22;20234;-87
2023/09/02 10:44:25;;;;;;;1.75;1.65;;;;;;;28.09;45.64;94817.38;6272780;22;20199;-87
2023/09/02 10:46:56;;;;;;;2.38;1.65;;;;;;;28.25;46.62;94869.94;6271985;22;20176;-87
2023/09/02 10:49:24;;;;;;;2.03;1.88;;;;;;;28.32;45.31;94814.66;6272145;22;20161;-84
2023/09/02 10:51:51;;;;;;;2.97;2.10;;;;;;;28.34;45.80;94805.34;6272369;22;20663;-86
2023/09/02 10:54:18;;;;;;;1.63;1.52;;;;;;;28.43;44.55;94761.13;6272790;22;20239;-85
2023/09/02 10:56:44;;;;;;;1.95;1.80;;;;;;;28.46;45.94;94810.84;6272271;22;20564;-88
2023/09/02 10:59:11;;;;;;;1.98;1.67;;;;;;;28.58;45.23;94780.31;6274435;22;20673;-84
2023/09/02 11:01:45;;;;;;;3.08;2.78;;;;;;;28.56;44.15;94750.69;6274784;22;20196;-86
2023/09/02 11:04:13;;;;;;;3.67;2.78;;;;;;;28.63;44.93;94772.22;6272413;22;20175;-87
2023/09/02 11:07:13;;;;;;;2.58;2.22;;;;;;;28.60;43.92;94741.06;6274533;22;20179;-86
2023/09/02 11:09:53;;;;;;;2.20;2.00;;;;;;;28.60;44.80;94765.66;6274431;22;20506;-87
2023/09/02 11:12:20;;;;;;;2.50;1.80;;;;;;;28.69;45.48;94813.34;6274556;22;20180;-88
2023/09/02 11:15:15;;;;;;;3.22;1.80;;;;;;;28.60;46.10;94841.72;6272932;22;20176;-87
2023/09/02 11:17:42;;;;;;;7.80;2.45;;;;;;;28.56;46.03;94841.53;6271673;22;20161;-84
2023/09/02 11:20:11;;;;;;;2.25;2.05;;;;;;;28.53;45.88;94858.81;6272869;22;20234;-86
2023/09/02 11:22:53;;;;;;;2.33;2.13;;;;;;;28.63;45.49;94846.41;6272615;22;20551;-87
2023/09/02 11:25:32;;;;;;;5.00;2.60;;;;;;;28.56;45.13;94793.09;6272633;22;20183;-87
2023/09/02 11:28:03;;;;;;;5.75;5.22;;;;;;;28.45;45.71;94838.41;6272481;22;20156;-87
2023/09/02 11:30:31;;;;;;;6.30;5.70;;;;;;;28.58;46.08;94879.09;6271664;22;20192;-87
2023/09/02 11:32:58;;;;;;;2.75;2.53;;;;;;;28.53;45.09;94771.41;6272207;22;20643;-87
2023/09/02 11:35:28;;;;;;;2.63;2.30;;;;;;;28.47;45.65;94822.22;6272971;22;20516;-87
2023/09/02 11:37:55;;;;;;;2.25;2.00;;;;;;;28.32;44.10;94738.66;6272859;22;20172;-88
2023/09/02 11:40:24;;;;;;;2.33;2.08;;;;;;;28.33;45.89;94819.66;6272899;22;20223;-84